sensor_id;sensor_type;location;lat;lon;timestamp;pressure;altitude;pressure_sealevel;temperature;humidity
13581;BME280;6861;46.170;7.222;2023-08-21T00:01:04;96507.69;;;29.21;34.65
13581;BME280;6861;46.170;7.222;2023-08-21T00:03:32;96514.16;;;29.13;35.04
13581;BME280;6861;46.170;7.222;2023-08-21T00:06:01;96518.34;;;29.07;34.65
13581;BME280;6861;46.170;7.222;2023-08-21T00:08:29;96513.28;;;29.02;34.71
13581;BME280;6861;46.170;7.222;2023-08-21T00:10:57;96522.50;;;29.01;35.34
13581;BME280;6861;46.170;7.222;2023-08-21T00:13:25;96517.88;;;28.98;35.07
13581;BME280;6861;46.170;7.222;2023-08-21T00:15:55;96526.69;;;28.95;35.35
13581;BME280;6861;46.170;7.222;2023-08-21T00:18:23;96519.41;;;28.99;35.50
13581;BME280;6861;46.170;7.222;2023-08-21T00:20:51;96520.94;;;28.96;35.60
13581;BME280;6861;46.170;7.222;2023-08-21T00:23:19;96527.81;;;28.94;35.60
13581;BME280;6861;46.170;7.222;2023-08-21T00:25:47;96528.16;;;28.89;35.46
13581;BME280;6861;46.170;7.222;2023-08-21T00:28:15;96524.59;;;28.81;36.06
13581;BME280;6861;46.170;7.222;2023-08-21T00:30:44;96525.31;;;28.78;35.76
13581;BME280;6861;46.170;7.222;2023-08-21T00:33:13;96524.84;;;28.69;35.77
13581;BME280;6861;46.170;7.222;2023-08-21T00:35:42;96516.72;;;28.65;36.00
13581;BME280;6861;46.170;7.222;2023-08-21T00:38:10;96528.22;;;28.62;35.64
13581;BME280;6861;46.170;7.222;2023-08-21T00:40:38;96531.75;;;28.66;36.03
13581;BME280;6861;46.170;7.222;2023-08-21T00:43:06;96531.44;;;28.75;35.92
13581;BME280;6861;46.170;7.222;2023-08-21T00:45:34;96526.50;;;28.81;35.90
13581;BME280;6861;46.170;7.222;2023-08-21T00:48:03;96520.81;;;28.86;35.42
13581;BME280;6861;46.170;7.222;2023-08-21T00:50:33;96524.69;;;28.88;35.05
13581;BME280;6861;46.170;7.222;2023-08-21T00:53:01;96520.09;;;28.89;35.20
13581;BME280;6861;46.170;7.222;2023-08-21T00:55:31;96518.53;;;28.88;35.66
13581;BME280;6861;46.170;7.222;2023-08-21T00:58:00;96530.81;;;28.85;35.37
13581;BME280;6861;46.170;7.222;2023-08-21T01:00:30;96530.75;;;28.82;35.80
13581;BME280;6861;46.170;7.222;2023-08-21T01:02:58;96524.97;;;28.80;35.55
13581;BME280;6861;46.170;7.222;2023-08-21T01:05:27;96528.38;;;28.77;35.35
13581;BME280;6861;46.170;7.222;2023-08-21T01:08:01;96517.53;;;28.69;36.15
13581;BME280;6861;46.170;7.222;2023-08-21T01:10:50;96543.66;;;28.65;35.96
13581;BME280;6861;46.170;7.222;2023-08-21T01:13:26;96532.06;;;28.61;35.88
13581;BME280;6861;46.170;7.222;2023-08-21T01:16:00;96534.38;;;28.59;36.15
13581;BME280;6861;46.170;7.222;2023-08-21T01:18:31;96536.69;;;28.61;36.23
13581;BME280;6861;46.170;7.222;2023-08-21T01:21:02;96538.53;;;28.53;35.90
13581;BME280;6861;46.170;7.222;2023-08-21T01:23:33;96540.41;;;28.49;36.55
13581;BME280;6861;46.170;7.222;2023-08-21T01:26:02;96546.53;;;28.46;35.86
13581;BME280;6861;46.170;7.222;2023-08-21T01:28:32;96542.94;;;28.35;36.75
13581;BME280;6861;46.170;7.222;2023-08-21T01:31:05;96540.47;;;28.23;36.62
13581;BME280;6861;46.170;7.222;2023-08-21T01:33:40;96542.97;;;28.12;37.09
13581;BME280;6861;46.170;7.222;2023-08-21T01:36:10;96539.41;;;28.04;37.19
13581;BME280;6861;46.170;7.222;2023-08-21T01:38:40;96541.19;;;27.93;37.14
13581;BME280;6861;46.170;7.222;2023-08-21T01:41:08;96546.47;;;27.86;36.71
13581;BME280;6861;46.170;7.222;2023-08-21T01:43:36;96554.94;;;27.88;36.72
13581;BME280;6861;46.170;7.222;2023-08-21T01:46:05;96548.84;;;27.91;36.97
13581;BME280;6861;46.170;7.222;2023-08-21T01:48:34;96552.97;;;27.85;37.57
13581;BME280;6861;46.170;7.222;2023-08-21T01:51:03;96554.78;;;27.78;37.88
13581;BME280;6861;46.170;7.222;2023-08-21T01:53:31;96554.72;;;27.74;37.76
13581;BME280;6861;46.170;7.222;2023-08-21T01:56:00;96553.56;;;27.71;37.53
13581;BME280;6861;46.170;7.222;2023-08-21T01:58:28;96553.50;;;27.68;38.35
13581;BME280;6861;46.170;7.222;2023-08-21T02:00:56;96561.47;;;27.61;38.31
13581;BME280;6861;46.170;7.222;2023-08-21T02:03:25;96557.50;;;27.55;38.90
13581;BME280;6861;46.170;7.222;2023-08-21T02:05:55;96563.47;;;27.45;39.26
13581;BME280;6861;46.170;7.222;2023-08-21T02:08:30;96564.72;;;27.28;39.29
13581;BME280;6861;46.170;7.222;2023-08-21T02:10:58;96564.41;;;27.10;39.84
13581;BME280;6861;46.170;7.222;2023-08-21T02:13:28;96563.22;;;27.07;39.91
13581;BME280;6861;46.170;7.222;2023-08-21T02:15:56;96569.00;;;27.09;39.66
13581;BME280;6861;46.170;7.222;2023-08-21T02:18:24;96568.59;;;27.07;39.88
13581;BME280;6861;46.170;7.222;2023-08-21T02:20:53;96568.16;;;27.05;39.88
13581;BME280;6861;46.170;7.222;2023-08-21T02:23:21;96575.75;;;27.00;39.95
13581;BME280;6861;46.170;7.222;2023-08-21T02:25:51;96564.13;;;26.96;39.84
13581;BME280;6861;46.170;7.222;2023-08-21T02:28:19;96573.91;;;26.85;39.54
13581;BME280;6861;46.170;7.222;2023-08-21T02:30:49;96565.22;;;26.72;40.11
13581;BME280;6861;46.170;7.222;2023-08-21T02:33:17;96565.44;;;26.63;40.16
13581;BME280;6861;46.170;7.222;2023-08-21T02:35:45;96560.72;;;26.57;39.81
13581;BME280;6861;46.170;7.222;2023-08-21T02:38:13;96571.81;;;26.55;40.04
13581;BME280;6861;46.170;7.222;2023-08-21T02:40:41;96573.00;;;26.58;40.36
13581;BME280;6861;46.170;7.222;2023-08-21T02:43:10;96567.78;;;26.65;39.94
13581;BME280;6861;46.170;7.222;2023-08-21T02:45:38;96574.13;;;26.76;39.96
13581;BME280;6861;46.170;7.222;2023-08-21T02:48:07;96572.00;;;26.85;39.62
13581;BME280;6861;46.170;7.222;2023-08-21T02:50:35;96569.72;;;26.87;39.66
13581;BME280;6861;46.170;7.222;2023-08-21T02:53:04;96566.75;;;26.92;39.41
13581;BME280;6861;46.170;7.222;2023-08-21T02:55:32;96578.00;;;26.98;39.76
13581;BME280;6861;46.170;7.222;2023-08-21T02:58:00;96565.00;;;27.00;39.46
13581;BME280;6861;46.170;7.222;2023-08-21T03:00:28;96569.59;;;26.99;39.56
13581;BME280;6861;46.170;7.222;2023-08-21T03:02:56;96564.94;;;26.96;39.50
13581;BME280;6861;46.170;7.222;2023-08-21T03:05:26;96573.31;;;26.95;39.82
13581;BME280;6861;46.170;7.222;2023-08-21T03:07:54;96568.03;;;26.98;38.99
13581;BME280;6861;46.170;7.222;2023-08-21T03:10:22;96574.19;;;26.99;39.02
13581;BME280;6861;46.170;7.222;2023-08-21T03:12:50;96571.63;;;26.87;39.45
13581;BME280;6861;46.170;7.222;2023-08-21T03:15:18;96566.22;;;26.83;39.93
13581;BME280;6861;46.170;7.222;2023-08-21T03:17:47;96568.00;;;26.75;40.29
13581;BME280;6861;46.170;7.222;2023-08-21T03:20:15;96567.72;;;26.61;40.56
13581;BME280;6861;46.170;7.222;2023-08-21T03:22:46;96575.25;;;26.56;40.44
13581;BME280;6861;46.170;7.222;2023-08-21T03:25:14;96570.09;;;26.47;40.44
13581;BME280;6861;46.170;7.222;2023-08-21T03:27:43;96569.97;;;26.40;40.59
13581;BME280;6861;46.170;7.222;2023-08-21T03:30:16;96567.72;;;26.26;41.28
13581;BME280;6861;46.170;7.222;2023-08-21T03:32:44;96577.94;;;26.21;41.40
13581;BME280;6861;46.170;7.222;2023-08-21T03:35:12;96579.06;;;26.20;41.52
13581;BME280;6861;46.170;7.222;2023-08-21T03:37:40;96577.09;;;26.17;41.49
13581;BME280;6861;46.170;7.222;2023-08-21T03:40:11;96578.50;;;26.10;41.83
13581;BME280;6861;46.170;7.222;2023-08-21T03:42:39;96578.50;;;26.10;41.61
13581;BME280;6861;46.170;7.222;2023-08-21T03:45:08;96587.66;;;26.09;41.45
13581;BME280;6861;46.170;7.222;2023-08-21T03:47:36;96582.28;;;26.09;41.46
13581;BME280;6861;46.170;7.222;2023-08-21T03:50:05;96583.44;;;26.08;41.55
13581;BME280;6861;46.170;7.222;2023-08-21T03:52:33;96582.13;;;26.02;41.50
13581;BME280;6861;46.170;7.222;2023-08-21T03:55:02;96591.75;;;26.03;41.70
13581;BME280;6861;46.170;7.222;2023-08-21T03:57:32;96586.72;;;26.02;41.89
13581;BME280;6861;46.170;7.222;2023-08-21T04:00:00;96593.59;;;25.99;41.85
13581;BME280;6861;46.170;7.222;2023-08-21T04:02:28;96589.00;;;26.00;41.75
13581;BME280;6861;46.170;7.222;2023-08-21T04:04:56;96605.72;;;25.93;41.86
13581;BME280;6861;46.170;7.222;2023-08-21T04:07:24;96594.81;;;25.86;41.74
13581;BME280;6861;46.170;7.222;2023-08-21T04:09:52;96602.44;;;25.84;41.99
13581;BME280;6861;46.170;7.222;2023-08-21T04:12:21;96598.53;;;25.82;42.29
13581;BME280;6861;46.170;7.222;2023-08-21T04:14:50;96596.91;;;25.77;42.00
13581;BME280;6861;46.170;7.222;2023-08-21T04:17:20;96608.22;;;25.70;42.23
13581;BME280;6861;46.170;7.222;2023-08-21T04:19:49;96612.31;;;25.64;42.48
13581;BME280;6861;46.170;7.222;2023-08-21T04:22:17;96607.72;;;25.65;42.41
13581;BME280;6861;46.170;7.222;2023-08-21T04:24:46;96610.81;;;25.67;42.57
13581;BME280;6861;46.170;7.222;2023-08-21T04:27:14;96609.69;;;25.68;42.62
13581;BME280;6861;46.170;7.222;2023-08-21T04:29:42;96608.56;;;25.69;42.70
13581;BME280;6861;46.170;7.222;2023-08-21T04:32:11;96609.50;;;25.61;42.75
13581;BME280;6861;46.170;7.222;2023-08-21T04:34:40;96609.31;;;25.54;42.83
13581;BME280;6861;46.170;7.222;2023-08-21T04:37:08;96613.38;;;25.47;43.30
13581;BME280;6861;46.170;7.222;2023-08-21T04:39:36;96609.31;;;25.38;43.30
13581;BME280;6861;46.170;7.222;2023-08-21T04:42:04;96617.84;;;25.28;43.71
13581;BME280;6861;46.170;7.222;2023-08-21T04:44:32;96622.25;;;25.20;44.05
13581;BME280;6861;46.170;7.222;2023-08-21T04:47:23;96628.03;;;25.22;44.16
13581;BME280;6861;46.170;7.222;2023-08-21T04:49:53;96626.81;;;25.20;43.95
13581;BME280;6861;46.170;7.222;2023-08-21T04:52:22;96631.66;;;25.14;44.18
13581;BME280;6861;46.170;7.222;2023-08-21T04:54:51;96634.50;;;25.05;44.38
13581;BME280;6861;46.170;7.222;2023-08-21T04:57:19;96638.31;;;24.92;44.51
13581;BME280;6861;46.170;7.222;2023-08-21T04:59:47;96647.16;;;24.80;44.77
13581;BME280;6861;46.170;7.222;2023-08-21T05:02:16;96646.97;;;24.73;44.80
13581;BME280;6861;46.170;7.222;2023-08-21T05:04:45;96649.53;;;24.70;45.08
13581;BME280;6861;46.170;7.222;2023-08-21T05:07:13;96652.09;;;24.66;45.34
13581;BME280;6861;46.170;7.222;2023-08-21T05:09:42;96657.47;;;24.66;45.25
13581;BME280;6861;46.170;7.222;2023-08-21T05:12:10;96658.59;;;24.65;45.31
13581;BME280;6861;46.170;7.222;2023-08-21T05:14:38;96652.78;;;24.63;45.34
13581;BME280;6861;46.170;7.222;2023-08-21T05:17:06;96660.03;;;24.63;45.52
13581;BME280;6861;46.170;7.222;2023-08-21T05:19:34;96662.81;;;24.66;45.67
13581;BME280;6861;46.170;7.222;2023-08-21T05:22:04;96660.59;;;24.68;45.79
13581;BME280;6861;46.170;7.222;2023-08-21T05:24:32;96661.91;;;24.74;45.58
13581;BME280;6861;46.170;7.222;2023-08-21T05:27:00;96666.13;;;24.75;45.74
13581;BME280;6861;46.170;7.222;2023-08-21T05:29:30;96664.59;;;24.74;45.76
13581;BME280;6861;46.170;7.222;2023-08-21T05:31:58;96661.47;;;24.72;45.74
13581;BME280;6861;46.170;7.222;2023-08-21T05:34:27;96668.38;;;24.73;45.72
13581;BME280;6861;46.170;7.222;2023-08-21T05:36:55;96675.41;;;24.78;45.78
13581;BME280;6861;46.170;7.222;2023-08-21T05:39:25;96669.47;;;24.84;45.59
13581;BME280;6861;46.170;7.222;2023-08-21T05:41:53;96674.16;;;24.88;45.18
13581;BME280;6861;46.170;7.222;2023-08-21T05:44:21;96675.13;;;24.95;45.29
13581;BME280;6861;46.170;7.222;2023-08-21T05:46:49;96671.78;;;24.98;45.26
13581;BME280;6861;46.170;7.222;2023-08-21T05:49:17;96674.56;;;25.02;45.01
13581;BME280;6861;46.170;7.222;2023-08-21T05:51:45;96679.16;;;25.01;44.72
13581;BME280;6861;46.170;7.222;2023-08-21T05:54:13;96682.25;;;25.03;44.94
13581;BME280;6861;46.170;7.222;2023-08-21T05:56:43;96676.56;;;25.05;45.03
13581;BME280;6861;46.170;7.222;2023-08-21T05:59:11;96677.34;;;25.05;45.02
13581;BME280;6861;46.170;7.222;2023-08-21T06:01:39;96675.44;;;25.06;45.14
13581;BME280;6861;46.170;7.222;2023-08-21T06:04:08;96680.13;;;25.09;45.06
13581;BME280;6861;46.170;7.222;2023-08-21T06:06:36;96690.84;;;25.09;45.04
13581;BME280;6861;46.170;7.222;2023-08-21T06:09:04;96683.81;;;25.04;45.14
13581;BME280;6861;46.170;7.222;2023-08-21T06:11:34;96690.53;;;24.98;45.35
13581;BME280;6861;46.170;7.222;2023-08-21T06:14:03;96682.84;;;24.97;45.56
13581;BME280;6861;46.170;7.222;2023-08-21T06:16:32;96688.97;;;24.97;45.47
13581;BME280;6861;46.170;7.222;2023-08-21T06:19:00;96696.88;;;24.94;45.76
13581;BME280;6861;46.170;7.222;2023-08-21T06:21:28;96690.31;;;24.91;45.56
13581;BME280;6861;46.170;7.222;2023-08-21T06:23:56;96693.00;;;24.91;45.53
13581;BME280;6861;46.170;7.222;2023-08-21T06:26:24;96688.84;;;24.94;45.39
13581;BME280;6861;46.170;7.222;2023-08-21T06:28:53;96693.44;;;24.93;45.47
13581;BME280;6861;46.170;7.222;2023-08-21T06:31:22;96692.66;;;24.93;45.40
13581;BME280;6861;46.170;7.222;2023-08-21T06:33:50;96695.00;;;24.94;45.15
13581;BME280;6861;46.170;7.222;2023-08-21T06:36:19;96685.97;;;24.99;45.11
13581;BME280;6861;46.170;7.222;2023-08-21T06:38:47;96693.06;;;25.07;45.10
13581;BME280;6861;46.170;7.222;2023-08-21T06:41:15;96686.38;;;25.13;44.91
13581;BME280;6861;46.170;7.222;2023-08-21T06:43:43;96684.63;;;25.21;44.67
13581;BME280;6861;46.170;7.222;2023-08-21T06:46:11;96679.72;;;25.23;44.77
13581;BME280;6861;46.170;7.222;2023-08-21T06:48:41;96688.28;;;25.28;44.73
13581;BME280;6861;46.170;7.222;2023-08-21T06:51:10;96684.59;;;25.33;44.64
13581;BME280;6861;46.170;7.222;2023-08-21T06:53:43;96680.88;;;25.37;44.52
13581;BME280;6861;46.170;7.222;2023-08-21T06:56:11;96692.47;;;25.41;44.37
13581;BME280;6861;46.170;7.222;2023-08-21T06:58:39;96691.78;;;25.44;44.16
13581;BME280;6861;46.170;7.222;2023-08-21T07:01:07;96676.75;;;25.56;44.05
13581;BME280;6861;46.170;7.222;2023-08-21T07:03:36;96685.91;;;25.83;44.09
13581;BME280;6861;46.170;7.222;2023-08-21T07:06:05;96685.97;;;26.18;43.61
13581;BME280;6861;46.170;7.222;2023-08-21T07:08:34;96691.47;;;26.56;42.70
13581;BME280;6861;46.170;7.222;2023-08-21T07:11:02;96677.03;;;26.99;42.25
13581;BME280;6861;46.170;7.222;2023-08-21T07:13:31;96679.06;;;27.45;41.90
13581;BME280;6861;46.170;7.222;2023-08-21T07:16:00;96680.25;;;27.89;40.86
13581;BME280;6861;46.170;7.222;2023-08-21T07:18:31;96684.78;;;28.31;40.27
13581;BME280;6861;46.170;7.222;2023-08-21T07:20:59;96680.66;;;28.67;39.31
13581;BME280;6861;46.170;7.222;2023-08-21T07:23:29;96678.81;;;29.01;38.20
13581;BME280;6861;46.170;7.222;2023-08-21T07:25:57;96676.09;;;29.31;37.68
13581;BME280;6861;46.170;7.222;2023-08-21T07:28:26;96671.78;;;29.63;37.56
13581;BME280;6861;46.170;7.222;2023-08-21T07:30:55;96673.22;;;29.94;36.85
13581;BME280;6861;46.170;7.222;2023-08-21T07:33:24;96660.78;;;30.27;36.34
13581;BME280;6861;46.170;7.222;2023-08-21T07:35:59;96660.97;;;30.59;35.92
13581;BME280;6861;46.170;7.222;2023-08-21T07:38:29;96656.88;;;30.90;35.61
13581;BME280;6861;46.170;7.222;2023-08-21T07:41:05;96663.97;;;31.23;35.24
13581;BME280;6861;46.170;7.222;2023-08-21T07:43:34;96657.47;;;31.49;34.97
13581;BME280;6861;46.170;7.222;2023-08-21T07:46:03;96658.25;;;31.67;34.44
13581;BME280;6861;46.170;7.222;2023-08-21T07:48:31;96661.00;;;31.81;34.02
13581;BME280;6861;46.170;7.222;2023-08-21T07:51:00;96661.03;;;31.96;33.80
13581;BME280;6861;46.170;7.222;2023-08-21T07:53:30;96664.47;;;32.14;33.06
13581;BME280;6861;46.170;7.222;2023-08-21T07:55:59;96657.13;;;32.29;32.81
13581;BME280;6861;46.170;7.222;2023-08-21T07:58:27;96646.66;;;32.41;32.46
13581;BME280;6861;46.170;7.222;2023-08-21T08:00:55;96648.19;;;32.49;32.74
13581;BME280;6861;46.170;7.222;2023-08-21T08:03:23;96653.97;;;32.62;32.75
13581;BME280;6861;46.170;7.222;2023-08-21T08:05:51;96645.03;;;32.83;31.91
13581;BME280;6861;46.170;7.222;2023-08-21T08:08:22;96647.25;;;33.02;31.74
13581;BME280;6861;46.170;7.222;2023-08-21T08:10:51;96642.91;;;33.15;31.75
13581;BME280;6861;46.170;7.222;2023-08-21T08:13:19;96637.81;;;33.32;31.61
13581;BME280;6861;46.170;7.222;2023-08-21T08:15:47;96643.16;;;33.46;31.30
13581;BME280;6861;46.170;7.222;2023-08-21T08:18:16;96641.09;;;33.64;31.39
13581;BME280;6861;46.170;7.222;2023-08-21T08:20:44;96639.38;;;33.88;30.70
13581;BME280;6861;46.170;7.222;2023-08-21T08:23:12;96630.72;;;34.04;30.22
13581;BME280;6861;46.170;7.222;2023-08-21T08:25:41;96636.34;;;34.24;29.72
13581;BME280;6861;46.170;7.222;2023-08-21T08:28:10;96623.34;;;34.45;29.52
13581;BME280;6861;46.170;7.222;2023-08-21T08:30:38;96621.19;;;34.64;29.32
13581;BME280;6861;46.170;7.222;2023-08-21T08:33:06;96617.53;;;34.77;28.82
13581;BME280;6861;46.170;7.222;2023-08-21T08:35:35;96608.44;;;34.91;28.48
13581;BME280;6861;46.170;7.222;2023-08-21T08:38:03;96604.00;;;35.04;28.43
13581;BME280;6861;46.170;7.222;2023-08-21T08:40:31;96602.63;;;35.20;28.10
13581;BME280;6861;46.170;7.222;2023-08-21T08:43:00;96605.22;;;35.30;28.27
13581;BME280;6861;46.170;7.222;2023-08-21T08:45:29;96598.50;;;35.38;27.74
13581;BME280;6861;46.170;7.222;2023-08-21T08:48:00;96592.88;;;35.49;27.47
13581;BME280;6861;46.170;7.222;2023-08-21T08:50:30;96593.88;;;35.59;27.67
13581;BME280;6861;46.170;7.222;2023-08-21T08:53:00;96594.06;;;35.71;27.67
13581;BME280;6861;46.170;7.222;2023-08-21T08:55:42;96590.50;;;35.74;27.46
13581;BME280;6861;46.170;7.222;2023-08-21T08:58:10;96589.34;;;35.75;27.32
13581;BME280;6861;46.170;7.222;2023-08-21T09:00:40;96572.06;;;35.86;27.09
13581;BME280;6861;46.170;7.222;2023-08-21T09:03:09;96581.31;;;35.92;27.16
13581;BME280;6861;46.170;7.222;2023-08-21T09:05:39;96572.31;;;35.95;26.94
13581;BME280;6861;46.170;7.222;2023-08-21T09:08:12;96574.53;;;36.00;26.92
13581;BME280;6861;46.170;7.222;2023-08-21T09:10:41;96570.09;;;36.09;26.79
13581;BME280;6861;46.170;7.222;2023-08-21T09:13:13;96565.88;;;36.28;26.87
13581;BME280;6861;46.170;7.222;2023-08-21T09:15:43;96555.53;;;36.39;26.46
13581;BME280;6861;46.170;7.222;2023-08-21T09:18:14;96563.72;;;36.39;26.45
13581;BME280;6861;46.170;7.222;2023-08-21T09:20:43;96555.84;;;36.41;26.63
13581;BME280;6861;46.170;7.222;2023-08-21T09:23:13;96552.06;;;36.55;26.67
13581;BME280;6861;46.170;7.222;2023-08-21T09:25:44;96537.72;;;36.71;26.38
13581;BME280;6861;46.170;7.222;2023-08-21T09:28:14;96542.06;;;36.88;26.17
13581;BME280;6861;46.170;7.222;2023-08-21T09:30:49;96539.72;;;37.06;25.59
13581;BME280;6861;46.170;7.222;2023-08-21T09:33:18;96534.44;;;37.16;25.49
13581;BME280;6861;46.170;7.222;2023-08-21T09:35:47;96531.56;;;37.23;25.32
13581;BME280;6861;46.170;7.222;2023-08-21T09:38:15;96524.38;;;37.29;25.30
13581;BME280;6861;46.170;7.222;2023-08-21T09:40:51;96518.56;;;37.27;25.33
13581;BME280;6861;46.170;7.222;2023-08-21T09:43:20;96517.16;;;37.22;25.30
13581;BME280;6861;46.170;7.222;2023-08-21T09:45:51;96512.38;;;37.26;25.48
13581;BME280;6861;46.170;7.222;2023-08-21T09:48:22;96517.47;;;37.40;25.46
13581;BME280;6861;46.170;7.222;2023-08-21T09:50:51;96509.34;;;37.53;25.53
13581;BME280;6861;46.170;7.222;2023-08-21T09:53:20;96503.56;;;37.67;25.16
13581;BME280;6861;46.170;7.222;2023-08-21T09:55:52;96503.72;;;37.77;25.00
13581;BME280;6861;46.170;7.222;2023-08-21T09:58:21;96504.63;;;37.86;25.23
13581;BME280;6861;46.170;7.222;2023-08-21T10:00:51;96499.31;;;37.95;25.12
13581;BME280;6861;46.170;7.222;2023-08-21T10:03:24;96491.69;;;38.03;25.24
13581;BME280;6861;46.170;7.222;2023-08-21T10:05:55;96491.50;;;38.10;25.04
13581;BME280;6861;46.170;7.222;2023-08-21T10:08:25;96482.44;;;38.13;24.82
13581;BME280;6861;46.170;7.222;2023-08-21T10:10:56;96489.00;;;38.16;24.41
13581;BME280;6861;46.170;7.222;2023-08-21T10:13:26;96484.72;;;38.15;24.11
13581;BME280;6861;46.170;7.222;2023-08-21T10:15:55;96478.16;;;38.12;23.52
13581;BME280;6861;46.170;7.222;2023-08-21T10:18:29;96485.34;;;38.06;23.62
13581;BME280;6861;46.170;7.222;2023-08-21T10:21:10;96481.63;;;38.00;23.55
13581;BME280;6861;46.170;7.222;2023-08-21T10:23:39;96479.41;;;37.95;24.04
13581;BME280;6861;46.170;7.222;2023-08-21T10:26:11;96468.16;;;37.93;23.93
13581;BME280;6861;46.170;7.222;2023-08-21T10:28:59;96472.50;;;37.90;24.15
13581;BME280;6861;46.170;7.222;2023-08-21T10:31:32;96465.41;;;37.93;24.31
13581;BME280;6861;46.170;7.222;2023-08-21T10:34:03;96465.31;;;37.96;24.49
13581;BME280;6861;46.170;7.222;2023-08-21T10:39:27;96452.41;;;37.97;24.57
13581;BME280;6861;46.170;7.222;2023-08-21T10:42:00;96453.63;;;37.96;24.78
13581;BME280;6861;46.170;7.222;2023-08-21T10:44:48;96442.44;;;37.90;24.57
13581;BME280;6861;46.170;7.222;2023-08-21T10:47:21;96439.81;;;37.87;24.86
13581;BME280;6861;46.170;7.222;2023-08-21T10:49:52;96434.88;;;37.82;24.69
13581;BME280;6861;46.170;7.222;2023-08-21T10:52:22;96440.53;;;37.75;24.71
13581;BME280;6861;46.170;7.222;2023-08-21T10:54:52;96433.19;;;37.71;24.69
13581;BME280;6861;46.170;7.222;2023-08-21T10:57:22;96431.16;;;37.59;24.79
13581;BME280;6861;46.170;7.222;2023-08-21T10:59:55;96432.03;;;37.56;25.04
13581;BME280;6861;46.170;7.222;2023-08-21T11:02:26;96422.38;;;37.52;25.06
13581;BME280;6861;46.170;7.222;2023-08-21T11:04:55;96427.16;;;37.48;25.76
13581;BME280;6861;46.170;7.222;2023-08-21T11:07:24;96422.31;;;37.39;25.87
13581;BME280;6861;46.170;7.222;2023-08-21T11:09:53;96414.19;;;37.23;25.82
13581;BME280;6861;46.170;7.222;2023-08-21T11:12:22;96424.56;;;37.12;26.35
13581;BME280;6861;46.170;7.222;2023-08-21T11:14:51;96421.84;;;36.95;26.19
13581;BME280;6861;46.170;7.222;2023-08-21T11:17:19;96417.84;;;36.84;26.05
13581;BME280;6861;46.170;7.222;2023-08-21T11:19:49;96415.34;;;36.73;26.13
13581;BME280;6861;46.170;7.222;2023-08-21T11:22:18;96418.81;;;36.57;26.20
13581;BME280;6861;46.170;7.222;2023-08-21T11:24:47;96405.00;;;36.48;26.22
13581;BME280;6861;46.170;7.222;2023-08-21T11:27:18;96407.44;;;36.42;26.50
13581;BME280;6861;46.170;7.222;2023-08-21T11:29:51;96403.63;;;36.40;26.76
13581;BME280;6861;46.170;7.222;2023-08-21T11:32:20;96409.09;;;36.40;26.44
13581;BME280;6861;46.170;7.222;2023-08-21T11:34:53;96398.91;;;36.40;26.48
13581;BME280;6861;46.170;7.222;2023-08-21T11:37:23;96389.56;;;36.41;26.76
13581;BME280;6861;46.170;7.222;2023-08-21T11:39:53;96396.53;;;36.42;26.85
13581;BME280;6861;46.170;7.222;2023-08-21T11:42:28;96385.97;;;36.44;26.84
13581;BME280;6861;46.170;7.222;2023-08-21T11:44:56;96383.59;;;36.47;26.70
13581;BME280;6861;46.170;7.222;2023-08-21T11:47:30;96383.19;;;36.48;26.79
13581;BME280;6861;46.170;7.222;2023-08-21T11:50:04;96374.56;;;36.50;26.62
13581;BME280;6861;46.170;7.222;2023-08-21T11:52:33;96372.19;;;36.52;26.76
13581;BME280;6861;46.170;7.222;2023-08-21T11:55:08;96367.41;;;36.56;27.23
13581;BME280;6861;46.170;7.222;2023-08-21T11:57:46;96365.03;;;36.58;27.09
13581;BME280;6861;46.170;7.222;2023-08-21T12:00:15;96358.38;;;36.59;27.07
13581;BME280;6861;46.170;7.222;2023-08-21T12:02:54;96359.59;;;36.58;27.17
13581;BME280;6861;46.170;7.222;2023-08-21T12:05:24;96354.13;;;36.58;27.35
13581;BME280;6861;46.170;7.222;2023-08-21T12:07:53;96347.81;;;36.61;27.42
13581;BME280;6861;46.170;7.222;2023-08-21T12:10:25;96344.75;;;36.59;26.95
13581;BME280;6861;46.170;7.222;2023-08-21T12:12:54;96342.03;;;36.59;27.16
13581;BME280;6861;46.170;7.222;2023-08-21T12:15:23;96340.50;;;36.58;27.35
13581;BME280;6861;46.170;7.222;2023-08-21T12:17:51;96335.38;;;36.60;27.37
13581;BME280;6861;46.170;7.222;2023-08-21T12:20:20;96339.31;;;36.59;27.25
13581;BME280;6861;46.170;7.222;2023-08-21T12:22:50;96331.47;;;36.61;27.26
13581;BME280;6861;46.170;7.222;2023-08-21T12:25:18;96329.06;;;36.63;27.16
13581;BME280;6861;46.170;7.222;2023-08-21T12:27:46;96325.91;;;36.64;26.92
13581;BME280;6861;46.170;7.222;2023-08-21T12:30:23;96325.91;;;36.64;27.33
13581;BME280;6861;46.170;7.222;2023-08-21T12:32:51;96322.75;;;36.66;27.33
13581;BME280;6861;46.170;7.222;2023-08-21T12:35:19;96317.22;;;36.69;27.37
13581;BME280;6861;46.170;7.222;2023-08-21T12:37:48;96314.06;;;36.71;27.35
13581;BME280;6861;46.170;7.222;2023-08-21T12:40:17;96307.41;;;36.72;26.99
13581;BME280;6861;46.170;7.222;2023-08-21T12:42:45;96307.38;;;36.75;27.07
13581;BME280;6861;46.170;7.222;2023-08-21T12:45:14;96306.16;;;36.76;27.12
13581;BME280;6861;46.170;7.222;2023-08-21T12:47:42;96296.69;;;36.81;26.81
13581;BME280;6861;46.170;7.222;2023-08-21T12:50:10;96304.78;;;36.85;26.68
13581;BME280;6861;46.170;7.222;2023-08-21T12:52:39;96295.00;;;36.87;26.75
13581;BME280;6861;46.170;7.222;2023-08-21T12:55:08;96298.06;;;36.89;26.67
13581;BME280;6861;46.170;7.222;2023-08-21T12:57:38;96291.75;;;36.92;26.48
13581;BME280;6861;46.170;7.222;2023-08-21T13:00:07;96286.97;;;36.96;26.32
13581;BME280;6861;46.170;7.222;2023-08-21T13:02:36;96281.41;;;37.00;26.34
13581;BME280;6861;46.170;7.222;2023-08-21T13:05:05;96281.31;;;37.03;26.38
13581;BME280;6861;46.170;7.222;2023-08-21T13:07:33;96283.63;;;37.05;26.10
13581;BME280;6861;46.170;7.222;2023-08-21T13:10:02;96284.38;;;37.05;26.22
13581;BME280;6861;46.170;7.222;2023-08-21T13:12:30;96276.53;;;37.07;26.43
13581;BME280;6861;46.170;7.222;2023-08-21T13:14:59;96272.25;;;37.06;26.54
13581;BME280;6861;46.170;7.222;2023-08-21T13:17:28;96264.84;;;37.07;26.45
13581;BME280;6861;46.170;7.222;2023-08-21T13:19:56;96269.09;;;37.08;26.41
13581;BME280;6861;46.170;7.222;2023-08-21T13:22:24;96264.84;;;37.07;26.00
13581;BME280;6861;46.170;7.222;2023-08-21T13:24:53;96266.38;;;37.08;25.86